Time;durP1;ratioP1;P1;durP2;ratioP2;P2;SDS_P1;SDS_P2;PMS_P1;PMS_P2;Temp;Humidity;BMP_temperature;BMP_pressure;BME280_temperature;BME280_humidity;BME280_pressure;Samples;Min_cycle;Max_cycle;Signal;HPM_P1;HPM_P2
2021/03/31 12:58:18;;;;;;;6.38;3.13;;;33.50;35.50;;;;;;5118939;27;20306;-77
2021/03/31 13:00:46;;;;;;;6.70;3.42;;;32.40;35.80;;;;;;5118785;28;20378;-77
2021/03/31 13:03:11;;;;;;;7.85;3.40;;;32.40;34.80;;;;;;5121102;28;20023;-76
2021/03/31 13:05:38;;;;;;;9.25;3.47;;;32.20;34.90;;;;;;5086693;28;20076;-76
2021/03/31 13:08:06;;;;;;;8.25;3.15;;;32.40;35.30;;;;;;5109910;28;20035;-77
2021/03/31 13:10:32;;;;;;;6.07;2.90;;;32.70;33.60;;;;;;5119567;28;20449;-77
2021/03/31 13:13:11;;;;;;;12.05;3.80;;;32.20;33.10;;;;;;5114423;28;20056;-77
2021/03/31 13:15:57;;;;;;;4.68;3.13;;;30.80;33.70;;;;;;5115832;28;20446;-76
2021/03/31 13:26:21;;;;;;;5.25;2.97;;;32.90;33.80;;;;;;5113060;28;20038;-76
2021/03/31 13:29:44;;;;;;;6.00;2.88;;;32.50;33.80;;;;;;5120078;28;20028;-76
2021/03/31 13:31:42;;;;;;;6.05;3.08;;;32.60;34.10;;;;;;5113509;27;20044;-76
2021/03/31 13:34:21;;;;;;;4.57;2.67;;;33.30;33.20;;;;;;5107690;28;20019;-76
2021/03/31 13:36:54;;;;;;;7.32;2.70;;;32.50;32.20;;;;;;5112255;28;20024;-76
2021/03/31 13:39:24;;;;;;;10.13;3.38;;;32.00;33.30;;;;;;5117733;28;20031;-76
2021/03/31 13:41:50;;;;;;;5.97;2.88;;;32.10;33.00;;;;;;5107947;28;20028;-76
2021/03/31 13:44:16;;;;;;;7.30;2.88;;;32.40;32.10;;;;;;5119558;28;20072;-76
2021/03/31 13:46:46;;;;;;;9.73;2.63;;;32.80;33.20;;;;;;5118628;28;20031;-76
2021/03/31 13:49:16;;;;;;;7.82;2.15;;;33.90;32.00;;;;;;5106292;28;20418;-76
2021/03/31 13:52:02;;;;;;;4.18;1.90;;;33.90;32.40;;;;;;5109122;28;20026;-76
2021/03/31 13:54:33;;;;;;;4.97;2.20;;;33.70;32.20;;;;;;5113753;28;20467;-76
2021/03/31 13:56:58;;;;;;;9.15;2.55;;;33.00;31.60;;;;;;5115405;28;20127;-75
2021/03/31 13:59:27;;;;;;;5.45;2.17;;;32.50;31.70;;;;;;5111107;28;20074;-76
2021/03/31 14:01:57;;;;;;;7.30;1.98;;;32.30;31.60;;;;;;5112669;28;20965;-75
2021/03/31 14:04:23;;;;;;;7.75;2.30;;;32.10;32.00;;;;;;5117862;27;20488;-76
2021/03/31 14:06:50;;;;;;;3.60;2.00;;;32.80;32.20;;;;;;5115503;28;20027;-76
2021/03/31 14:09:16;;;;;;;11.30;2.05;;;34.10;31.80;;;;;;5109559;28;20399;-76
2021/03/31 14:11:45;;;;;;;5.15;2.17;;;34.70;31.10;;;;;;5105644;28;20020;-76
2021/03/31 14:14:11;;;;;;;5.30;2.10;;;34.50;30.90;;;;;;5107882;28;20023;-76
2021/03/31 14:16:38;;;;;;;3.92;1.90;;;33.90;30.50;;;;;;5102323;28;20035;-76
2021/03/31 14:19:05;;;;;;;6.80;2.10;;;34.60;30.90;;;;;;5102465;28;20115;-76
2021/03/31 14:21:31;;;;;;;5.32;2.25;;;34.30;30.40;;;;;;5101880;28;20039;-76
2021/03/31 14:23:57;;;;;;;5.18;2.15;;;34.70;30.60;;;;;;5097161;28;20024;-75
2021/03/31 14:26:22;;;;;;;3.55;1.95;;;35.50;30.60;;;;;;5095569;28;20071;-76
2021/03/31 14:28:48;;;;;;;6.38;2.08;;;36.30;30.40;;;;;;5094395;28;20028;-76
2021/03/31 14:31:13;;;;;;;4.82;1.50;;;36.60;30.60;;;;;;5106031;28;20707;-76
2021/03/31 14:33:39;;;;;;;6.82;2.28;;;36.90;30.80;;;;;;5103946;28;20512;-75
2021/03/31 14:36:05;;;;;;;6.82;2.30;;;36.80;30.00;;;;;;5101936;28;20032;-75
2021/03/31 14:38:31;;;;;;;5.57;1.80;;;35.60;32.10;;;;;;5094671;28;20488;-75
2021/03/31 14:40:56;;;;;;;3.58;1.80;;;34.60;32.00;;;;;;5103188;28;20889;-76
2021/03/31 14:43:22;;;;;;;5.05;1.85;;;34.60;31.10;;;;;;5096533;28;20097;-76
2021/03/31 14:45:48;;;;;;;6.35;2.05;;;34.50;30.80;;;;;;5103872;28;20024;-75
2021/03/31 14:48:13;;;;;;;4.22;2.08;;;34.00;31.00;;;;;;5100236;28;20037;-75
2021/03/31 14:50:39;;;;;;;6.88;2.03;;;33.80;31.30;;;;;;5096694;28;20027;-76
2021/03/31 15:01:17;;;;;;;10.20;1.65;;;35.70;31.20;;;;;;5090767;28;20054;-76
2021/03/31 15:03:42;;;;;;;3.45;1.45;;;35.70;30.00;;;;;;5085106;28;20638;-75
2021/03/31 15:06:08;;;;;;;5.38;1.60;;;35.20;30.10;;;;;;5101340;28;20039;-76
2021/03/31 15:08:34;;;;;;;6.22;1.73;;;35.10;29.90;;;;;;5098954;28;20032;-74
2021/03/31 15:10:59;;;;;;;3.40;1.35;;;34.50;29.70;;;;;;5095386;28;20615;-76
2021/03/31 15:13:25;;;;;;;6.15;1.55;;;34.20;28.70;;;;;;5091883;28;20034;-75
2021/03/31 15:15:51;;;;;;;3.58;1.38;;;34.20;29.60;;;;;;5092462;28;20111;-75
2021/03/31 15:18:18;;;;;;;5.28;1.40;;;34.00;30.10;;;;;;5091512;28;20408;-76
2021/03/31 15:21:00;;;;;;;3.45;1.30;;;34.00;30.70;;;;;;5091758;28;20109;-75
2021/03/31 15:25:52;;;;;;;7.78;1.70;;;33.80;29.60;;;;;;5085561;28;20374;-76
2021/03/31 15:28:17;;;;;;;7.38;2.10;;;33.20;30.20;;;;;;5071180;28;20527;-74
2021/03/31 15:30:43;;;;;;;7.97;1.70;;;33.80;30.10;;;;;;5070944;28;20086;-75
2021/03/31 15:33:09;;;;;;;5.05;1.00;;;33.40;29.30;;;;;;5071759;28;20392;-76
2021/03/31 15:35:35;;;;;;;6.25;1.50;;;32.70;30.00;;;;;;5072233;28;20033;-74
2021/03/31 15:38:00;;;;;;;7.35;1.60;;;32.30;30.10;;;;;;5071063;28;20028;-75
2021/03/31 15:40:26;;;;;;;5.47;1.55;;;32.00;30.10;;;;;;5071919;28;20025;-76
2021/03/31 15:42:53;;;;;;;5.40;1.60;;;31.90;30.20;;;;;;5082263;28;20103;-75
2021/03/31 15:45:19;;;;;;;8.88;3.20;;;31.80;30.00;;;;;;5086859;28;20028;-75
2021/03/31 15:47:47;;;;;;;3.42;1.33;;;32.10;30.70;;;;;;5071940;28;20101;-75
2021/03/31 15:50:14;;;;;;;6.32;1.50;;;32.30;30.50;;;;;;5072005;28;20051;-75
2021/03/31 15:52:40;;;;;;;4.25;1.30;;;32.20;29.60;;;;;;5075840;28;20081;-75
2021/03/31 15:55:07;;;;;;;10.73;1.90;;;32.20;29.60;;;;;;5092076;28;20035;-75
2021/03/31 15:57:33;;;;;;;9.30;1.75;;;33.20;29.50;;;;;;5091884;28;20030;-77
2021/03/31 15:59:59;;;;;;;7.75;1.60;;;33.30;29.70;;;;;;5091083;28;20032;-75
2021/03/31 16:02:24;;;;;;;4.72;1.73;;;33.60;29.20;;;;;;5091699;28;20031;-75
2021/03/31 16:04:52;;;;;;;8.02;1.50;;;33.60;29.00;;;;;;5090305;28;20083;-75
2021/03/31 16:07:34;;;;;;;5.63;1.40;;;33.60;29.20;;;;;;5092142;28;20028;-74
2021/03/31 16:10:01;;;;;;;7.43;1.77;;;33.80;29.10;;;;;;5088119;28;20027;-75
2021/03/31 16:12:27;;;;;;;9.02;1.50;;;33.30;29.50;;;;;;5071078;28;20396;-75
2021/03/31 16:14:53;;;;;;;5.32;1.80;;;33.10;29.70;;;;;;5070289;28;20123;-72
2021/03/31 16:17:19;;;;;;;9.52;1.40;;;33.00;30.00;;;;;;5071330;28;20039;-74
2021/03/31 16:19:45;;;;;;;8.15;2.17;;;32.90;29.50;;;;;;5071415;28;20037;-74
2021/03/31 16:22:11;;;;;;;8.32;1.63;;;32.80;30.10;;;;;;5071096;28;20031;-74
2021/03/31 16:24:38;;;;;;;8.77;2.58;;;32.50;30.00;;;;;;5089078;28;20031;-73
2021/03/31 16:27:05;;;;;;;5.50;1.52;;;32.50;30.60;;;;;;5071338;28;20032;-75
2021/03/31 16:29:51;;;;;;;6.97;1.35;;;32.60;30.00;;;;;;5053662;28;20032;-75
2021/03/31 16:32:17;;;;;;;6.35;1.63;;;32.40;29.70;;;;;;5069837;28;20032;-77
2021/03/31 16:34:42;;;;;;;7.05;1.80;;;32.90;29.70;;;;;;5071377;28;20104;-75
2021/03/31 16:37:08;;;;;;;4.25;1.63;;;33.20;29.80;;;;;;5071173;28;20066;-75
2021/03/31 16:39:34;;;;;;;9.38;1.80;;;33.40;29.70;;;;;;5070103;28;20035;-75
2021/03/31 16:42:00;;;;;;;7.60;2.28;;;33.40;29.70;;;;;;5070363;28;20025;-75
2021/03/31 16:44:26;;;;;;;6.85;1.70;;;33.40;30.10;;;;;;5071228;28;20028;-76
2021/03/31 16:46:52;;;;;;;7.82;1.95;;;33.40;30.00;;;;;;5072605;28;20027;-80
2021/03/31 16:49:18;;;;;;;3.38;1.80;;;33.40;30.20;;;;;;5053152;28;20254;-76
2021/03/31 16:51:43;;;;;;;5.65;1.75;;;32.90;30.40;;;;;;5069315;28;20029;-77
2021/03/31 16:54:10;;;;;;;6.55;1.70;;;32.80;30.40;;;;;;5088780;28;20024;-76
2021/03/31 16:56:36;;;;;;;10.25;1.90;;;32.50;30.70;;;;;;5091207;28;20043;-76
2021/03/31 16:59:03;;;;;;;8.75;2.13;;;32.20;31.30;;;;;;5078087;28;20077;-76
2021/03/31 17:01:32;;;;;;;5.88;1.77;;;31.60;31.70;;;;;;5070472;28;20466;-75
2021/03/31 17:03:58;;;;;;;6.80;2.00;;;31.10;31.90;;;;;;5071096;28;20029;-75
2021/03/31 17:06:24;;;;;;;4.70;2.30;;;30.70;32.80;;;;;;5078198;28;20044;-76
2021/03/31 17:08:50;;;;;;;6.78;2.05;;;30.40;33.30;;;;;;5091558;28;20101;-75
2021/03/31 17:11:15;;;;;;;11.50;1.90;;;30.00;33.60;;;;;;5090985;28;20024;-75
2021/03/31 17:13:41;;;;;;;4.75;1.70;;;29.90;33.80;;;;;;5090719;28;20705;-74
2021/03/31 17:16:07;;;;;;;8.60;1.70;;;29.80;33.60;;;;;;5091281;28;20035;-74
2021/03/31 17:18:32;;;;;;;7.95;2.00;;;29.70;33.60;;;;;;5090770;28;20083;-75
2021/03/31 17:21:00;;;;;;;6.43;1.77;;;29.50;33.00;;;;;;5091284;28;20067;-75
2021/03/31 17:23:26;;;;;;;6.20;1.77;;;29.30;33.50;;;;;;5090647;28;20016;-76
2021/03/31 17:25:51;;;;;;;7.28;1.50;;;29.10;33.40;;;;;;5089810;28;20043;-75
2021/03/31 17:28:17;;;;;;;4.57;1.65;;;28.60;34.10;;;;;;5090852;28;20020;-75
2021/03/31 17:30:43;;;;;;;4.28;1.55;;;28.10;34.80;;;;;;5090162;28;20028;-75
2021/03/31 17:33:09;;;;;;;5.72;1.65;;;27.80;35.00;;;;;;5090652;28;20035;-75
2021/03/31 17:35:35;;;;;;;10.63;2.00;;;27.20;35.40;;;;;;5074123;28;20033;-75
2021/03/31 17:38:06;;;;;;;10.63;1.60;;;26.60;35.60;;;;;;5082941;28;20043;-75
2021/03/31 17:40:34;;;;;;;3.38;1.88;;;26.00;36.10;;;;;;5083755;28;20016;-76
2021/03/31 17:43:00;;;;;;;12.55;2.50;;;25.50;37.20;;;;;;5080501;28;20170;-76
2021/03/31 17:45:26;;;;;;;5.95;2.00;;;25.00;39.10;;;;;;5088295;28;20035;-77
2021/03/31 17:47:51;;;;;;;7.10;3.55;;;24.50;40.90;;;;;;5089735;28;20047;-77
2021/03/31 17:50:19;;;;;;;9.10;2.83;;;24.10;42.90;;;;;;5094649;28;20480;-77
2021/03/31 17:52:56;;;;;;;6.65;2.50;;;23.70;45.00;;;;;;5088891;28;20028;-77
2021/03/31 17:55:22;;;;;;;8.98;2.45;;;23.20;46.40;;;;;;5084824;28;20326;-76
2021/03/31 17:57:48;;;;;;;9.82;3.38;;;22.80;47.30;;;;;;5086861;28;20036;-77
2021/03/31 18:00:16;;;;;;;15.90;2.72;;;22.20;48.70;;;;;;5083273;28;20052;-72
2021/03/31 18:02:43;;;;;;;10.20;2.33;;;22.10;50.00;;;;;;5079542;28;20024;-75
2021/03/31 18:05:10;;;;;;;11.07;3.03;;;21.70;49.80;;;;;;5080609;28;20454;-73
2021/03/31 18:07:36;;;;;;;8.65;3.25;;;21.40;52.40;;;;;;5082818;28;20477;-75
2021/03/31 18:10:05;;;;;;;9.25;2.65;;;21.10;51.80;;;;;;5082632;28;20028;-74
2021/03/31 18:12:34;;;;;;;11.55;2.95;;;20.80;52.70;;;;;;5087414;28;20024;-74
2021/03/31 18:14:59;;;;;;;18.42;4.07;;;20.60;53.10;;;;;;5086384;28;20021;-74
2021/03/31 18:17:25;;;;;;;11.23;3.05;;;20.30;54.90;;;;;;5086815;28;20081;-74
2021/03/31 18:19:51;;;;;;;8.30;2.95;;;20.10;53.80;;;;;;5083051;28;20035;-74
2021/03/31 18:22:16;;;;;;;6.28;2.45;;;20.10;54.30;;;;;;5082309;28;20036;-74
2021/03/31 18:24:43;;;;;;;8.25;2.97;;;19.80;54.90;;;;;;5083416;28;20073;-74
2021/03/31 18:27:09;;;;;;;11.88;2.80;;;19.70;56.10;;;;;;5082128;28;20028;-74
2021/03/31 18:29:35;;;;;;;11.75;3.35;;;19.40;57.00;;;;;;5082784;28;20150;-74
2021/03/31 18:32:01;;;;;;;10.15;2.55;;;19.40;56.50;;;;;;5080457;28;20100;-75
2021/03/31 18:34:27;;;;;;;8.45;2.20;;;19.30;56.60;;;;;;5080626;28;20021;-75
2021/03/31 18:36:53;;;;;;;12.27;2.92;;;19.20;56.60;;;;;;5082724;28;20027;-74
2021/03/31 18:39:19;;;;;;;9.10;2.60;;;19.20;56.40;;;;;;5081762;28;20035;-74
2021/03/31 18:44:13;;;;;;;10.98;3.65;;;19.00;56.30;;;;;;5081602;28;20020;-76
2021/03/31 18:46:39;;;;;;;9.55;3.63;;;18.80;57.70;;;;;;5082856;28;20040;-76
2021/03/31 18:49:04;;;;;;;13.73;3.55;;;18.80;57.90;;;;;;5081884;28;20078;-75
2021/03/31 18:51:30;;;;;;;13.00;3.85;;;18.80;57.90;;;;;;5080736;28;20028;-74
2021/03/31 18:53:56;;;;;;;11.75;3.40;;;18.80;58.20;;;;;;5082895;28;20024;-74
